createdAt,value
2023-04-18T00:02:00.402Z,44.59
2023-04-18T00:04:02.301Z,44.67
2023-04-18T00:06:04.625Z,44.32
2023-04-18T00:08:06.247Z,44.31
2023-04-18T00:10:08.739Z,44.29
2023-04-18T00:12:11.251Z,44.58
2023-04-18T00:14:14.356Z,43.98
2023-04-18T00:16:16.170Z,43.99
2023-04-18T00:18:18.063Z,43.99
2023-04-18T00:20:19.761Z,44.17
2023-04-18T00:22:21.355Z,44.29
2023-04-18T00:24:23.010Z,44.03
2023-04-18T00:26:24.838Z,44.28
2023-04-18T00:28:26.490Z,44.06
2023-04-18T00:30:29.394Z,44.39
2023-04-18T00:32:31.230Z,43.98
2023-04-18T00:34:32.859Z,43.70
2023-04-18T00:36:34.434Z,44.13
2023-04-18T00:38:36.057Z,43.55
2023-04-18T00:40:37.761Z,44.01
2023-04-18T00:42:39.308Z,44.19
2023-04-18T00:44:40.874Z,43.90
2023-04-18T00:46:43.942Z,44.10
2023-04-18T00:48:45.936Z,44.18
2023-04-18T00:50:47.582Z,44.34
2023-04-18T00:52:49.357Z,44.35
2023-04-18T00:54:51.427Z,44.15
2023-04-18T00:56:53.424Z,44.28
2023-04-18T00:58:55.030Z,44.19
2023-04-18T01:00:56.631Z,44.84
2023-04-18T01:03:00.688Z,44.56
2023-04-18T01:05:02.853Z,44.36
2023-04-18T01:07:04.876Z,44.33
2023-04-18T01:09:06.624Z,44.30
2023-04-18T01:11:08.212Z,44.01
2023-04-18T01:13:10.625Z,44.35
2023-04-18T01:15:12.257Z,44.76
2023-04-18T01:17:13.889Z,44.54
2023-04-18T01:19:16.902Z,44.54
2023-04-18T01:21:18.731Z,44.19
2023-04-18T01:23:20.880Z,44.29
2023-04-18T01:25:24.130Z,43.94
2023-04-18T01:27:25.869Z,44.08
2023-04-18T01:29:27.607Z,44.20
2023-04-18T01:31:29.264Z,44.24
2023-04-18T01:33:31.097Z,44.48
2023-04-18T01:35:35.128Z,44.27
2023-04-18T01:37:36.780Z,44.68
2023-04-18T01:39:38.326Z,44.83
2023-04-18T01:41:41.687Z,44.86
2023-04-18T01:43:43.213Z,45.12
2023-04-18T01:45:44.797Z,45.28
2023-04-18T01:47:46.805Z,44.56
2023-04-18T01:49:48.533Z,44.59
2023-04-18T01:51:50.156Z,44.92
2023-04-18T01:53:51.779Z,44.98
2023-04-18T01:55:53.318Z,44.80
2023-04-18T01:57:56.353Z,44.98
2023-04-18T01:59:57.984Z,45.23
2023-04-18T02:01:59.819Z,44.47
2023-04-18T02:04:01.637Z,44.48
2023-04-18T02:06:05.516Z,45.55
2023-04-18T02:08:07.101Z,44.93
2023-04-18T02:10:09.895Z,44.21
2023-04-18T02:12:11.540Z,44.64
2023-04-18T02:14:14.783Z,44.93
2023-04-18T02:16:16.550Z,44.50
2023-04-18T02:18:18.382Z,44.49
2023-04-18T02:20:19.923Z,44.65
2023-04-18T02:22:21.477Z,44.59
2023-04-18T02:24:23.374Z,44.56
2023-04-18T02:26:25.015Z,44.56
2023-04-18T02:28:26.723Z,44.51
2023-04-18T02:30:29.648Z,44.28
2023-04-18T02:32:31.335Z,44.98
2023-04-18T02:34:32.960Z,44.52
2023-04-18T02:36:34.514Z,44.79
2023-04-18T02:38:36.147Z,44.83
2023-04-18T02:40:37.762Z,45.17
2023-04-18T02:42:39.497Z,45.13
2023-04-18T02:44:41.024Z,45.31
2023-04-18T02:46:43.869Z,44.76
2023-04-18T02:48:45.427Z,45.27
2023-04-18T02:50:47.019Z,45.22
2023-04-18T02:52:48.605Z,44.99
2023-04-18T02:54:50.189Z,45.15
2023-04-18T02:56:53.185Z,45.30
2023-04-18T02:58:54.730Z,45.68
2023-04-18T03:00:56.868Z,45.30
2023-04-18T03:02:59.993Z,45.79
2023-04-18T03:05:01.761Z,45.88
2023-04-18T03:07:03.421Z,45.70
2023-04-18T03:09:04.957Z,45.83
2023-04-18T03:11:06.603Z,46.03
2023-04-18T03:13:08.251Z,46.49
2023-04-18T03:15:10.665Z,46.25
2023-04-18T03:17:12.643Z,46.49
2023-04-18T03:19:15.533Z,46.24
2023-04-18T03:21:17.112Z,46.92
2023-04-18T03:23:18.652Z,46.38
2023-04-18T03:25:23.026Z,46.42
2023-04-18T03:27:24.622Z,46.63
2023-04-18T03:29:26.207Z,46.87
2023-04-18T03:31:27.854Z,46.73
2023-04-18T03:33:29.508Z,46.62
2023-04-18T03:35:32.461Z,46.60
2023-04-18T03:37:34.094Z,46.70
2023-04-18T03:39:35.652Z,46.81
2023-04-18T03:41:37.312Z,47.25
2023-04-18T03:43:38.936Z,46.68
2023-04-18T03:45:40.640Z,47.07
2023-04-18T03:47:42.270Z,46.92
2023-04-18T03:49:43.860Z,46.85
2023-04-18T03:51:47.478Z,47.22
2023-04-18T03:53:49.043Z,47.24
2023-04-18T03:55:50.672Z,47.20
2023-04-18T03:57:52.263Z,47.77
2023-04-18T03:59:56.458Z,47.08
2023-04-18T04:01:58.159Z,47.23
2023-04-18T04:03:59.943Z,47.34
2023-04-18T04:06:01.586Z,47.62
2023-04-18T04:08:04.724Z,47.64
2023-04-18T04:10:07.287Z,47.79
2023-04-18T04:12:08.891Z,48.55
2023-04-18T04:14:10.480Z,48.12
2023-04-18T04:16:13.614Z,48.14
2023-04-18T04:18:15.224Z,48.85
2023-04-18T04:20:16.977Z,48.37
2023-04-18T04:22:18.670Z,47.85
2023-04-18T04:24:21.529Z,48.32
2023-04-18T04:26:23.390Z,48.69
2023-04-18T04:28:24.938Z,48.08
2023-04-18T04:30:26.503Z,48.26
2023-04-18T04:32:28.166Z,47.84
2023-04-18T04:34:29.769Z,48.40
2023-04-18T04:36:31.364Z,47.88
2023-04-18T04:38:33.020Z,48.73
2023-04-18T04:40:35.926Z,48.23
2023-04-18T04:42:37.578Z,48.31
2023-04-18T04:44:39.276Z,48.38
2023-04-18T04:46:40.853Z,48.44
2023-04-18T04:48:42.374Z,48.28
2023-04-18T04:50:51.945Z,48.27
2023-04-18T04:52:53.514Z,48.34
2023-04-18T04:54:55.061Z,48.40
2023-04-18T04:56:58.000Z,48.18
2023-04-18T04:58:59.563Z,48.52
2023-04-18T05:01:01.169Z,49.02
2023-04-18T05:03:02.877Z,48.93
2023-04-18T05:05:05.350Z,49.34
2023-04-18T05:07:06.968Z,49.29
2023-04-18T05:09:08.562Z,49.35
2023-04-18T05:11:10.108Z,49.46
2023-04-18T05:13:13.433Z,50.03
2023-04-18T05:15:15.774Z,49.63
2023-04-18T05:17:17.291Z,49.43
2023-04-18T05:19:18.804Z,48.96
2023-04-18T05:21:20.360Z,49.62
2023-04-18T05:23:21.947Z,49.02
2023-04-18T05:25:23.539Z,48.89
2023-04-18T05:27:25.812Z,49.53
2023-04-18T05:29:28.856Z,49.45
2023-04-18T05:31:30.881Z,48.57
2023-04-18T05:33:32.610Z,48.60
2023-04-18T05:35:34.377Z,48.93
2023-04-18T05:37:35.935Z,48.99
2023-04-18T05:39:37.602Z,48.93
2023-04-18T05:41:39.131Z,49.17
2023-04-18T05:43:41.789Z,49.48
2023-04-18T05:45:46.289Z,49.62
2023-04-18T05:47:47.892Z,49.25
2023-04-18T05:49:49.639Z,49.52
2023-04-18T05:51:51.264Z,49.76
2023-04-18T05:53:52.853Z,49.26
2023-04-18T05:55:54.487Z,49.45
2023-04-18T05:57:56.107Z,50.42
2023-04-18T05:59:57.735Z,49.05
2023-04-18T06:02:00.614Z,49.72
2023-04-18T06:04:02.297Z,49.80
2023-04-18T06:06:04.368Z,49.56
2023-04-18T06:08:05.870Z,49.72
2023-04-18T06:10:08.817Z,50.25
2023-04-18T06:12:10.583Z,50.27
2023-04-18T06:14:12.419Z,50.51
2023-04-18T06:16:14.448Z,50.31
2023-04-18T06:18:17.387Z,50.50
2023-04-18T06:20:18.912Z,50.31
2023-04-18T06:22:20.682Z,50.33
2023-04-18T06:24:22.275Z,50.48
2023-04-18T06:26:23.845Z,50.52
2023-04-18T06:28:27.041Z,50.66
2023-04-18T06:30:28.609Z,50.50
2023-04-18T06:32:30.122Z,50.98
2023-04-18T06:34:33.124Z,51.00
2023-04-18T06:36:34.703Z,50.70
2023-04-18T06:38:36.364Z,50.86
2023-04-18T06:40:37.909Z,50.82
2023-04-18T06:42:39.598Z,50.94
2023-04-18T06:44:41.456Z,51.28
2023-04-18T06:46:43.030Z,51.68
2023-04-18T06:48:44.590Z,51.61
2023-04-18T06:50:47.477Z,51.70
2023-04-18T06:52:49.035Z,52.09
2023-04-18T06:54:50.580Z,52.59
2023-04-18T06:56:52.608Z,51.66
2023-04-18T06:58:54.248Z,51.28
2023-04-18T07:00:55.913Z,51.17
2023-04-18T07:02:57.586Z,51.80
2023-04-18T07:04:59.220Z,50.80
2023-04-18T07:07:02.173Z,50.86
2023-04-18T07:09:03.935Z,51.83
2023-04-18T07:11:05.977Z,51.28
2023-04-18T07:13:07.593Z,51.06
2023-04-18T07:15:10.458Z,51.21
2023-04-18T07:17:12.546Z,51.49
2023-04-18T07:19:14.166Z,51.72
2023-04-18T07:21:15.765Z,51.39
2023-04-18T07:23:18.766Z,51.53
2023-04-18T07:25:20.453Z,51.71
2023-04-18T07:27:22.076Z,51.50
2023-04-18T07:29:23.655Z,51.95
2023-04-18T07:31:25.249Z,51.51
2023-04-18T07:33:26.817Z,51.55
2023-04-18T07:35:28.472Z,51.56
2023-04-18T07:37:30.099Z,51.54
2023-04-18T07:39:33.055Z,51.67
2023-04-18T07:41:35.270Z,51.69
2023-04-18T07:43:36.857Z,51.55
2023-04-18T07:45:38.413Z,51.45
2023-04-18T07:47:40.090Z,51.50
2023-04-18T07:49:41.733Z,51.78
2023-04-18T07:51:43.294Z,51.52
2023-04-18T07:53:44.878Z,51.25
2023-04-18T07:55:47.863Z,51.16
2023-04-18T07:57:49.417Z,51.33
2023-04-18T07:59:51.056Z,51.46
2023-04-18T08:01:52.750Z,51.13
2023-04-18T08:03:54.481Z,51.00
2023-04-18T08:05:56.199Z,51.13
2023-04-18T08:07:57.792Z,51.47
2023-04-18T08:09:59.411Z,51.26
2023-04-18T08:12:02.355Z,51.64
2023-04-18T08:14:03.916Z,51.29
2023-04-18T08:16:06.000Z,51.66
2023-04-18T08:18:07.754Z,51.39
2023-04-18T08:20:09.959Z,51.82
2023-04-18T08:22:11.880Z,51.42
2023-04-18T08:24:13.612Z,50.91
2023-04-18T08:26:15.217Z,51.18
2023-04-18T08:28:18.161Z,51.62
2023-04-18T08:30:19.849Z,51.03
2023-04-18T08:32:21.624Z,51.06
2023-04-18T08:34:23.606Z,51.32
2023-04-18T08:36:25.329Z,51.17
2023-04-18T08:38:27.008Z,51.07
2023-04-18T08:40:28.591Z,51.06
2023-04-18T08:42:30.658Z,51.08
2023-04-18T08:44:34.325Z,50.82
2023-04-18T08:46:36.137Z,54.15
2023-04-18T08:48:37.786Z,50.59
2023-04-18T08:50:39.570Z,51.13
2023-04-18T08:52:44.762Z,50.66
2023-04-18T08:54:46.708Z,51.07
2023-04-18T08:57:03.300Z,50.47
2023-04-18T08:59:04.918Z,50.34
2023-04-18T09:01:07.994Z,49.97
2023-04-18T09:03:14.331Z,50.12
2023-04-18T09:05:20.025Z,50.13
2023-04-18T09:07:30.779Z,49.71
2023-04-18T09:09:43.444Z,48.79
2023-04-18T09:11:45.098Z,49.13
2023-04-18T09:13:46.660Z,49.21
2023-04-18T09:15:54.674Z,49.65
2023-04-18T09:18:00.006Z,49.72
2023-04-18T09:20:03.752Z,49.66
2023-04-18T09:22:05.299Z,49.89
2023-04-18T09:24:18.169Z,49.78
2023-04-18T09:26:33.072Z,49.83
2023-04-18T09:28:34.699Z,50.18
2023-04-18T09:30:38.232Z,50.30
2023-04-18T09:32:40.056Z,49.94
2023-04-18T09:34:43.088Z,50.19
2023-04-18T09:36:44.675Z,50.35
2023-04-18T09:38:46.724Z,50.48
2023-04-18T09:41:07.599Z,50.58
2023-04-18T09:43:20.872Z,50.68
2023-04-18T09:45:23.551Z,50.08
2023-04-18T09:47:26.442Z,50.33
2023-04-18T09:49:28.196Z,50.18
2023-04-18T09:51:33.177Z,50.49
2023-04-18T09:53:38.953Z,50.49
2023-04-18T09:55:41.226Z,50.49
2023-04-18T09:57:45.447Z,50.36
2023-04-18T09:59:51.445Z,50.45
2023-04-18T10:01:53.890Z,50.51
2023-04-18T10:03:57.119Z,50.09
2023-04-18T10:05:58.910Z,50.08
2023-04-18T10:08:02.972Z,50.51
2023-04-18T10:10:05.706Z,49.88
2023-04-18T10:12:07.694Z,49.64
2023-04-18T10:14:13.271Z,49.81
2023-04-18T10:16:16.024Z,49.43
2023-04-18T10:18:23.380Z,48.63
2023-04-18T10:20:26.422Z,49.10
2023-04-18T10:22:28.023Z,49.60
2023-04-18T10:24:52.657Z,48.28
2023-04-18T10:26:54.252Z,49.23
2023-04-18T10:28:57.336Z,48.19
2023-04-18T10:31:03.306Z,48.90
2023-04-18T10:33:30.324Z,48.54
2023-04-18T10:35:35.185Z,50.74
2023-04-18T10:37:49.534Z,48.73
2023-04-18T10:39:57.314Z,48.25
2023-04-18T10:41:58.977Z,47.56
2023-04-18T10:44:27.807Z,47.52
2023-04-18T10:46:32.834Z,47.43
2023-04-18T10:48:38.456Z,47.10
2023-04-18T10:51:13.943Z,46.22
2023-04-18T10:53:15.668Z,46.81
2023-04-18T10:55:24.523Z,47.06
2023-04-18T10:57:37.820Z,47.07
2023-04-18T10:59:42.630Z,50.39
2023-04-18T11:01:49.094Z,47.07
2023-04-18T11:03:51.240Z,46.33
2023-04-18T11:06:01.251Z,45.47
2023-04-18T11:08:03.463Z,45.12
2023-04-18T11:10:07.657Z,45.06
2023-04-18T11:12:11.388Z,45.28
2023-04-18T11:14:13.403Z,44.59
2023-04-18T11:16:26.036Z,44.44
2023-04-18T11:18:39.456Z,44.56
2023-04-18T11:20:47.268Z,45.18
2023-04-18T11:22:50.148Z,44.06
2023-04-18T11:24:52.360Z,44.21
2023-04-18T11:26:54.116Z,43.77
2023-04-18T11:28:58.441Z,44.28
2023-04-18T11:31:01.124Z,44.26
2023-04-18T11:33:05.529Z,44.19
2023-04-18T11:35:09.790Z,44.60
2023-04-18T11:37:15.039Z,49.30
2023-04-18T11:39:16.748Z,50.61
2023-04-18T11:41:18.383Z,44.06
2023-04-18T11:43:21.551Z,44.44
2023-04-18T11:45:24.510Z,44.63
2023-04-18T11:47:27.733Z,45.38
2023-04-18T11:49:31.247Z,44.46
2023-04-18T11:51:34.564Z,44.68
2023-04-18T11:53:37.554Z,44.69
2023-04-18T11:55:39.305Z,45.38
2023-04-18T11:57:41.524Z,45.84
2023-04-18T11:59:48.368Z,45.37
2023-04-18T12:02:08.849Z,44.82
2023-04-18T12:04:17.274Z,45.02
2023-04-18T12:06:19.246Z,46.11
2023-04-18T12:08:21.126Z,45.73
2023-04-18T12:10:29.108Z,45.77
2023-04-18T12:12:30.750Z,45.83
2023-04-18T12:14:35.534Z,45.61
2023-04-18T12:16:37.160Z,45.90
2023-04-18T12:18:40.158Z,46.15
2023-04-18T12:20:44.756Z,45.42
2023-04-18T12:22:47.796Z,45.72
2023-04-18T12:25:17.712Z,45.81
2023-04-18T12:27:19.318Z,45.38
2023-04-18T12:29:21.083Z,45.82
2023-04-18T12:31:22.752Z,46.21
2023-04-18T12:33:24.482Z,46.35
2023-04-18T12:35:28.992Z,47.06
2023-04-18T12:37:30.551Z,46.02
2023-04-18T12:39:32.182Z,46.47
2023-04-18T12:41:33.758Z,46.35
2023-04-18T12:43:35.308Z,45.86
2023-04-18T12:45:37.034Z,45.39
2023-04-18T12:47:39.985Z,45.81
2023-04-18T12:49:41.638Z,45.60
2023-04-18T12:51:44.538Z,45.67
2023-04-18T12:53:46.138Z,45.83
2023-04-18T12:55:47.760Z,45.53
2023-04-18T12:57:50.882Z,45.31
2023-04-18T12:59:52.520Z,45.43
2023-04-18T13:01:54.108Z,45.68
2023-04-18T13:04:08.305Z,45.64
2023-04-18T13:06:13.016Z,44.76
2023-04-18T13:08:17.981Z,45.61
2023-04-18T13:10:21.705Z,44.98
2023-04-18T13:12:23.400Z,45.84
2023-04-18T13:14:25.152Z,46.01
2023-04-18T13:16:26.876Z,46.56
2023-04-18T13:18:28.522Z,46.33
2023-04-18T13:20:30.152Z,45.42
2023-04-18T13:22:32.071Z,45.54
2023-04-18T13:24:35.153Z,45.82
2023-04-18T13:26:36.768Z,46.01
2023-04-18T13:28:38.362Z,46.01
2023-04-18T13:30:40.167Z,45.36
2023-04-18T13:32:42.449Z,45.11
2023-04-18T13:34:46.419Z,45.21
2023-04-18T13:36:48.151Z,45.27
2023-04-18T13:38:51.034Z,45.41
2023-04-18T13:41:01.225Z,45.07
2023-04-18T13:43:10.436Z,44.72
2023-04-18T13:45:12.019Z,44.93
2023-04-18T13:47:13.721Z,44.63
2023-04-18T13:49:15.491Z,44.17
2023-04-18T13:51:17.367Z,44.65
2023-04-18T13:53:18.901Z,44.81
2023-04-18T13:55:20.552Z,44.76
2023-04-18T13:57:23.492Z,44.52
2023-04-18T13:59:25.221Z,44.83
2023-04-18T14:01:26.978Z,45.26
2023-04-18T14:03:31.058Z,45.16
2023-04-18T14:05:32.793Z,44.74
2023-04-18T14:07:34.366Z,45.15
2023-04-18T14:09:36.036Z,45.81
2023-04-18T14:11:37.629Z,45.13
2023-04-18T14:13:40.713Z,45.41
2023-04-18T14:15:42.328Z,44.96
2023-04-18T14:17:45.685Z,45.00
2023-04-18T14:19:47.600Z,44.97
2023-04-18T14:21:49.185Z,45.14
2023-04-18T14:23:52.211Z,44.65
2023-04-18T14:25:53.827Z,44.56
2023-04-18T14:28:04.648Z,44.57
2023-04-18T14:30:09.304Z,44.69
2023-04-18T14:32:10.959Z,44.99
2023-04-18T14:34:12.667Z,44.79
2023-04-18T14:36:14.251Z,44.76
2023-04-18T14:38:15.998Z,44.90
2023-04-18T14:40:17.743Z,44.64
2023-04-18T14:42:19.314Z,44.76
2023-04-18T14:44:21.083Z,44.07
2023-04-18T14:46:24.262Z,43.63
2023-04-18T14:48:26.063Z,43.64
2023-04-18T14:50:27.756Z,43.90
2023-04-18T14:52:29.307Z,43.73
2023-04-18T14:54:32.661Z,43.40
2023-04-18T14:56:34.573Z,43.17
2023-04-18T14:58:36.174Z,42.27
2023-04-18T15:00:37.807Z,42.71
2023-04-18T15:02:41.426Z,42.88
2023-04-18T15:04:43.393Z,42.99
2023-04-18T15:06:45.165Z,42.69
2023-04-18T15:08:46.804Z,42.85
2023-04-18T15:10:48.464Z,41.92
2023-04-18T15:12:50.117Z,42.33
2023-04-18T15:14:51.731Z,42.42
2023-04-18T15:16:56.027Z,42.28
2023-04-18T15:18:59.064Z,41.80
2023-04-18T15:21:00.716Z,42.18
2023-04-18T15:23:02.363Z,41.98
2023-04-18T15:25:05.026Z,42.38
2023-04-18T15:27:06.715Z,42.37
2023-04-18T15:29:08.349Z,41.90
2023-04-18T15:31:09.932Z,41.76
2023-04-18T15:33:12.608Z,42.17
2023-04-18T15:35:15.545Z,42.59
2023-04-18T15:37:17.139Z,42.18
2023-04-18T15:39:18.685Z,42.89
2023-04-18T15:41:20.457Z,41.51
2023-04-18T15:43:22.064Z,41.73
2023-04-18T15:45:23.798Z,41.23
2023-04-18T15:47:25.460Z,41.53
2023-04-18T15:49:27.156Z,41.27
2023-04-18T15:51:30.412Z,41.63
2023-04-18T15:53:32.055Z,42.69
2023-04-18T15:55:33.683Z,42.17
2023-04-18T15:57:35.340Z,42.76
2023-04-18T15:59:37.156Z,40.85
2023-04-18T16:01:38.734Z,41.95
2023-04-18T16:03:40.906Z,42.28
2023-04-18T16:05:42.784Z,41.79
2023-04-18T16:07:45.836Z,41.34
2023-04-18T16:09:47.429Z,40.85
2023-04-18T16:11:48.976Z,40.24
2023-04-18T16:13:50.584Z,40.65
2023-04-18T16:15:52.267Z,40.22
2023-04-18T16:17:54.535Z,40.23
2023-04-18T16:19:56.175Z,40.77
2023-04-18T16:21:57.872Z,41.18
2023-04-18T16:24:00.806Z,41.13
2023-04-18T16:26:02.384Z,41.65
2023-04-18T16:28:04.381Z,41.23
2023-04-18T16:30:07.353Z,41.24
2023-04-18T16:32:08.957Z,41.49
2023-04-18T16:34:10.789Z,42.24
2023-04-18T16:36:12.406Z,42.32
2023-04-18T16:38:13.983Z,41.91
2023-04-18T16:40:16.938Z,42.20
2023-04-18T16:42:18.531Z,42.03
2023-04-18T16:44:20.101Z,41.95
2023-04-18T16:46:21.761Z,42.00
2023-04-18T16:48:23.639Z,41.91
2023-04-18T16:50:25.296Z,41.61
2023-04-18T16:52:27.082Z,41.88
2023-04-18T16:54:28.952Z,41.77
2023-04-18T16:56:31.990Z,42.09
2023-04-18T16:58:33.621Z,42.11
2023-04-18T17:00:38.254Z,42.74
2023-04-18T17:02:40.128Z,41.75
2023-04-18T17:04:41.935Z,42.17
2023-04-18T17:06:46.134Z,41.87
2023-04-18T17:08:47.686Z,41.94
2023-04-18T17:10:51.853Z,42.52
2023-04-18T17:12:54.873Z,42.98
2023-04-18T17:14:56.480Z,42.98
2023-04-18T17:16:58.031Z,42.91
2023-04-18T17:18:59.653Z,42.43
2023-04-18T17:21:01.432Z,42.54
2023-04-18T17:23:03.073Z,42.19
2023-04-18T17:25:05.914Z,42.24
2023-04-18T17:27:07.468Z,42.75
2023-04-18T17:29:10.686Z,43.15
2023-04-18T17:31:13.714Z,43.41
2023-04-18T17:33:15.308Z,43.51
2023-04-18T17:35:17.086Z,43.30
2023-04-18T17:37:18.639Z,43.99
2023-04-18T17:39:20.216Z,43.71
2023-04-18T17:41:22.172Z,43.86
2023-04-18T17:43:23.864Z,44.25
2023-04-18T17:45:27.048Z,44.25
2023-04-18T17:47:28.672Z,44.07
2023-04-18T17:49:30.304Z,44.29
2023-04-18T17:51:31.955Z,44.26
2023-04-18T17:53:33.744Z,44.39
2023-04-18T17:55:35.476Z,44.99
2023-04-18T17:57:37.269Z,44.93
2023-04-18T17:59:38.850Z,45.20
2023-04-18T18:01:41.853Z,44.88
2023-04-18T18:03:44.442Z,45.47
2023-04-18T18:05:47.392Z,44.81
2023-04-18T18:07:49.514Z,44.92
2023-04-18T18:09:52.602Z,45.07
2023-04-18T18:11:55.908Z,45.34
2023-04-18T18:13:57.809Z,45.28
2023-04-18T18:15:59.405Z,45.23
2023-04-18T18:18:02.410Z,45.38
2023-04-18T18:20:07.048Z,45.85
2023-04-18T18:22:08.627Z,45.73
2023-04-18T18:24:10.287Z,45.77
2023-04-18T18:26:12.126Z,46.14
2023-04-18T18:28:13.802Z,46.03
2023-04-18T18:30:15.666Z,46.16
2023-04-18T18:32:17.295Z,46.04
2023-04-18T18:34:20.241Z,46.06
2023-04-18T18:36:21.836Z,46.21
2023-04-18T18:38:23.567Z,46.12
2023-04-18T18:40:25.164Z,46.25
2023-04-18T18:42:27.263Z,46.07
2023-04-18T18:44:29.101Z,45.87
2023-04-18T18:46:30.719Z,46.59
2023-04-18T18:48:32.318Z,46.54
2023-04-18T18:50:35.354Z,46.71
2023-04-18T18:52:37.085Z,46.83
2023-04-18T18:54:38.745Z,46.60
2023-04-18T18:56:40.406Z,46.81
2023-04-18T18:58:42.027Z,47.07
2023-04-18T19:00:43.662Z,47.08
2023-04-18T19:02:45.413Z,47.06
2023-04-18T19:04:47.413Z,47.28
2023-04-18T19:06:50.703Z,47.43
2023-04-18T19:08:52.359Z,47.29
2023-04-18T19:10:54.017Z,47.14
2023-04-18T19:12:55.762Z,47.26
2023-04-18T19:14:57.346Z,47.54
2023-04-18T19:16:58.921Z,47.58
2023-04-18T19:19:00.575Z,47.80
2023-04-18T19:21:03.087Z,47.64
2023-04-18T19:23:08.500Z,48.00
2023-04-18T19:25:10.386Z,47.87
2023-04-18T19:27:12.001Z,47.71
2023-04-18T19:29:13.817Z,47.78
2023-04-18T19:31:15.743Z,47.94
2023-04-18T19:33:17.387Z,48.06
2023-04-18T19:35:19.231Z,48.22
2023-04-18T19:37:20.804Z,48.15
2023-04-18T19:39:23.854Z,47.97
2023-04-18T19:41:25.406Z,48.31
2023-04-18T19:43:27.074Z,48.46
2023-04-18T19:45:30.709Z,48.60
2023-04-18T19:47:32.329Z,48.39
2023-04-18T19:49:33.979Z,48.49
2023-04-18T19:51:35.593Z,48.80
2023-04-18T19:53:37.309Z,49.04
2023-04-18T19:55:40.265Z,48.96
2023-04-18T19:57:41.857Z,48.96
2023-04-18T19:59:43.386Z,49.03
2023-04-18T20:01:45.154Z,49.36
2023-04-18T20:03:47.211Z,49.18
2023-04-18T20:05:48.948Z,49.05
2023-04-18T20:07:50.608Z,48.63
2023-04-18T20:09:52.328Z,48.64
2023-04-18T20:11:55.294Z,49.12
2023-04-18T20:13:56.872Z,48.87
2023-04-18T20:15:58.637Z,48.88
2023-04-18T20:18:00.315Z,48.99
2023-04-18T20:20:01.967Z,48.72
2023-04-18T20:22:03.618Z,48.33
2023-04-18T20:24:05.707Z,49.11
2023-04-18T20:26:07.324Z,48.73
2023-04-18T20:28:10.896Z,48.65
2023-04-18T20:30:12.952Z,48.72
2023-04-18T20:32:14.596Z,48.68
2023-04-18T20:34:16.216Z,48.93
2023-04-18T20:36:17.854Z,48.84
2023-04-18T20:38:19.466Z,49.27
2023-04-18T20:40:21.594Z,48.92
2023-04-18T20:42:23.202Z,49.17
2023-04-18T20:44:26.340Z,48.96
2023-04-18T20:46:27.928Z,49.12
2023-04-18T20:48:29.515Z,49.35
2023-04-18T20:50:31.107Z,49.35
2023-04-18T20:52:33.048Z,49.76
2023-04-18T20:54:34.627Z,49.69
2023-04-18T20:56:36.283Z,49.36
2023-04-18T20:58:37.955Z,49.65
2023-04-18T21:00:41.493Z,49.55
2023-04-18T21:02:44.186Z,49.57
2023-04-18T21:04:45.977Z,49.65
2023-04-18T21:06:47.591Z,49.61
2023-04-18T21:08:49.190Z,49.68
2023-04-18T21:10:50.760Z,49.73
2023-04-18T21:12:52.384Z,50.07
2023-04-18T21:14:54.287Z,49.97
2023-04-18T21:16:58.624Z,49.67
2023-04-18T21:19:00.186Z,49.55
2023-04-18T21:21:01.842Z,49.70
2023-04-18T21:23:03.505Z,49.67
2023-04-18T21:25:05.914Z,49.82
2023-04-18T21:27:08.113Z,49.61
2023-04-18T21:29:09.847Z,49.79
2023-04-18T21:31:11.462Z,49.41
2023-04-18T21:33:14.604Z,49.45
2023-04-18T21:35:18.664Z,49.50
2023-04-18T21:37:21.366Z,49.48
2023-04-18T21:39:23.237Z,49.54
2023-04-18T21:41:25.450Z,49.89
2023-04-18T21:43:27.416Z,49.67
2023-04-18T21:45:29.388Z,49.34
2023-04-18T21:47:32.176Z,49.49
2023-04-18T21:49:35.204Z,49.53
2023-04-18T21:51:36.807Z,49.27
2023-04-18T21:53:39.363Z,49.48
2023-04-18T21:55:40.994Z,49.19
2023-04-18T21:57:42.591Z,49.49
2023-04-18T21:59:44.161Z,49.41
2023-04-18T22:01:45.718Z,49.56
2023-04-18T22:03:47.517Z,49.65
2023-04-18T22:05:50.633Z,49.46
2023-04-18T22:07:58.021Z,49.40
2023-04-18T22:10:00.324Z,49.42
2023-04-18T22:12:02.089Z,50.06
2023-04-18T22:14:03.742Z,49.99
2023-04-18T22:16:06.228Z,50.00
2023-04-18T22:18:08.490Z,49.70
2023-04-18T22:20:11.658Z,49.65
2023-04-18T22:22:14.765Z,49.84
2023-04-18T22:24:16.668Z,49.68
2023-04-18T22:26:18.792Z,49.48
2023-04-18T22:28:20.550Z,49.89
2023-04-18T22:30:22.239Z,49.79
2023-04-18T22:32:23.887Z,50.00
2023-04-18T22:34:25.502Z,49.90
2023-04-18T22:36:27.080Z,49.80
2023-04-18T22:38:30.450Z,50.14
2023-04-18T22:40:32.218Z,50.06
2023-04-18T22:42:34.228Z,50.24
2023-04-18T22:44:36.475Z,49.83
2023-04-18T22:48:42.007Z,49.52
2023-04-18T22:50:43.691Z,49.40
2023-04-18T22:52:45.288Z,49.58
2023-04-18T22:54:48.233Z,49.89
2023-04-18T22:56:50.036Z,49.71
2023-04-18T22:58:51.644Z,49.70
2023-04-18T23:00:53.223Z,49.66
2023-04-18T23:02:54.871Z,49.86
2023-04-18T23:04:56.932Z,49.95
2023-04-18T23:06:58.590Z,50.03
2023-04-18T23:09:00.131Z,50.19
2023-04-18T23:11:05.430Z,50.17
2023-04-18T23:13:06.997Z,50.36
2023-04-18T23:15:09.119Z,50.57
2023-04-18T23:17:10.662Z,50.46
2023-04-18T23:19:12.214Z,50.78
2023-04-18T23:21:13.824Z,50.46
2023-04-18T23:23:15.475Z,50.56
2023-04-18T23:25:17.550Z,50.55
2023-04-18T23:27:20.505Z,50.67
2023-04-18T23:29:22.180Z,50.47
2023-04-18T23:31:23.753Z,50.61
2023-04-18T23:33:25.342Z,50.48
2023-04-18T23:35:26.989Z,50.77
2023-04-18T23:37:28.520Z,50.70
2023-04-18T23:39:30.230Z,50.77
2023-04-18T23:41:31.902Z,50.95
2023-04-18T23:43:35.040Z,51.04
2023-04-18T23:45:36.587Z,50.92
2023-04-18T23:47:38.148Z,51.02
2023-04-18T23:49:39.725Z,51.06
2023-04-18T23:51:41.323Z,51.37
2023-04-18T23:53:42.918Z,51.65
2023-04-18T23:55:44.521Z,51.66
2023-04-18T23:57:46.096Z,51.61
2023-04-18T23:59:49.086Z,51.82
